METAR Data

Data at: 0613 UTC 28 Sep 2022

METAR for:KPSM (Portsmouth Intl, NH, US)
Text:KPSM 280555Z 23003KT 10SM FEW080 11/09 A2989 RMK AO2A SLP124 T01110092 10161 20104 52008
Temperature: 11.1°C ( 52°F)
Dewpoint: 9.2°C ( 49°F) [RH = 88%]
Pressure (altimeter):29.89 inches Hg (1012.3 mb) [Sea level pressure: 1012.4 mb]
Winds:from the SW (230 degrees) at 3 MPH (3 knots; 1.5 m/s)
Visibility:10 or more sm (16+ km)
Ceiling:at least 12,000 feet AGL
Clouds: few clouds at 8000 feet AGL